LXJ62 KPIT-KCLE
Flight info
| Callsign | LXJ62 |
|---|---|
| Flight time | 0h 31m |
| Altitude | 25000 |
| Route | BSV ROLLN ROLLN2 |
| Aircraft | C25C/M-BGS/L |
Departure
| Time | 2026-05-05 01:23 |
|---|---|
| Airport | Pittsburgh International Airport (KPIT) |
Arrival
| Time | 2026-05-05 01:55 |
|---|---|
| Airport | Cleveland Hopkins International Airport (KCLE) |
| Time | Latitude | Longitude | Altitude | Speed | Heading |
|---|---|---|---|---|---|
| 2026-05-05 01:06 | 40.49667 | -80.22216 | 1148 ft | 0 kts | 39° |
| 2026-05-05 01:12 | 40.49663 | -80.22196 | 1148 ft | 10 kts | 157° |
| 2026-05-05 01:12 | 40.49649 | -80.22206 | 1148 ft | 1 kts | 234° |
| 2026-05-05 01:13 | 40.49648 | -80.22208 | 1148 ft | 0 kts | 234° |
| 2026-05-05 01:13 | 40.49646 | -80.22211 | 1148 ft | 0 kts | 234° |
| 2026-05-05 01:14 | 40.49670 | -80.22300 | 1148 ft | 20 kts | 284° |
| 2026-05-05 01:14 | 40.49722 | -80.22468 | 1148 ft | 20 kts | 299° |
| 2026-05-05 01:14 | 40.49788 | -80.22623 | 1149 ft | 19 kts | 299° |
| 2026-05-05 01:15 | 40.49852 | -80.22774 | 1149 ft | 19 kts | 299° |
| 2026-05-05 01:15 | 40.49894 | -80.22872 | 1149 ft | 19 kts | 300° |
| 2026-05-05 01:15 | 40.49956 | -80.23020 | 1149 ft | 18 kts | 285° |
| 2026-05-05 01:15 | 40.49961 | -80.23162 | 1148 ft | 4 kts | 273° |
| 2026-05-05 01:16 | 40.49968 | -80.23321 | 1148 ft | 16 kts | 285° |
| 2026-05-05 01:16 | 40.50031 | -80.23367 | 1146 ft | 1 kts | 2° |
| 2026-05-05 01:16 | 40.50032 | -80.23367 | 1146 ft | 0 kts | 2° |
| 2026-05-05 01:22 | 40.50066 | -80.23366 | 1145 ft | 11 kts | 2° |
| 2026-05-05 01:22 | 40.50134 | -80.23394 | 1143 ft | 10 kts | 288° |
| 2026-05-05 01:22 | 40.50138 | -80.23433 | 1143 ft | 0 kts | 273° |
| 2026-05-05 01:23 | 40.50138 | -80.23434 | 1143 ft | 0 kts | 273° |
| 2026-05-05 01:23 | 40.50144 | -80.23667 | 1143 ft | 63 kts | 271° |
| 2026-05-05 01:23 | 40.50181 | -80.24639 | 1361 ft | 141 kts | 274° |
| 2026-05-05 01:23 | 40.50394 | -80.26044 | 2099 ft | 172 kts | 283° |
| 2026-05-05 01:24 | 40.51223 | -80.27405 | 2853 ft | 205 kts | 308° |
| 2026-05-05 01:24 | 40.52341 | -80.28628 | 3563 ft | 215 kts | 311° |
| 2026-05-05 01:24 | 40.53501 | -80.29814 | 4136 ft | 201 kts | 312° |
| 2026-05-05 01:24 | 40.54540 | -80.30851 | 5014 ft | 173 kts | 307° |
| 2026-05-05 01:25 | 40.55272 | -80.31917 | 5813 ft | 146 kts | 292° |
| 2026-05-05 01:25 | 40.55753 | -80.33177 | 6048 ft | 162 kts | 282° |
| 2026-05-05 01:25 | 40.56087 | -80.34626 | 6222 ft | 169 kts | 279° |
| 2026-05-05 01:25 | 40.56387 | -80.36128 | 6498 ft | 168 kts | 278° |
| 2026-05-05 01:26 | 40.56652 | -80.37599 | 6976 ft | 164 kts | 278° |
| 2026-05-05 01:26 | 40.56895 | -80.39067 | 7433 ft | 166 kts | 276° |
| 2026-05-05 01:26 | 40.57098 | -80.40599 | 7624 ft | 179 kts | 275° |
| 2026-05-05 01:26 | 40.57305 | -80.42203 | 7773 ft | 175 kts | 277° |
| 2026-05-05 01:27 | 40.57545 | -80.43742 | 7908 ft | 169 kts | 278° |
| 2026-05-05 01:27 | 40.57767 | -80.45213 | 8126 ft | 159 kts | 277° |
| 2026-05-05 01:27 | 40.57983 | -80.46637 | 8419 ft | 166 kts | 277° |
| 2026-05-05 01:27 | 40.58233 | -80.48307 | 9401 ft | 204 kts | 278° |
| 2026-05-05 01:28 | 40.58507 | -80.50277 | 10442 ft | 227 kts | 278° |
| 2026-05-05 01:28 | 40.58803 | -80.52366 | 11433 ft | 238 kts | 279° |
| 2026-05-05 01:28 | 40.59119 | -80.54551 | 12399 ft | 248 kts | 279° |
| 2026-05-05 01:28 | 40.59431 | -80.56815 | 13474 ft | 253 kts | 278° |
| 2026-05-05 01:29 | 40.59763 | -80.59118 | 14432 ft | 262 kts | 280° |
| 2026-05-05 01:29 | 40.60149 | -80.61539 | 15172 ft | 273 kts | 281° |
| 2026-05-05 01:29 | 40.60524 | -80.63944 | 16336 ft | 270 kts | 281° |
| 2026-05-05 01:29 | 40.61004 | -80.66314 | 17523 ft | 268 kts | 282° |
| 2026-05-05 01:30 | 40.61449 | -80.68724 | 18429 ft | 274 kts | 282° |
| 2026-05-05 01:30 | 40.61879 | -80.71217 | 19214 ft | 282 kts | 281° |
| 2026-05-05 01:30 | 40.62301 | -80.73721 | 20283 ft | 280 kts | 281° |
| 2026-05-05 01:30 | 40.62740 | -80.76242 | 21213 ft | 284 kts | 282° |
| 2026-05-05 01:31 | 40.63181 | -80.78635 | 23072 ft | 243 kts | 282° |
| 2026-05-05 01:31 | 40.63601 | -80.80871 | 23835 ft | 265 kts | 281° |
| 2026-05-05 01:31 | 40.64022 | -80.83371 | 23976 ft | 296 kts | 280° |
| 2026-05-05 01:31 | 40.64455 | -80.86182 | 23989 ft | 328 kts | 279° |
| 2026-05-05 01:32 | 40.64914 | -80.89256 | 23997 ft | 356 kts | 281° |
| 2026-05-05 01:32 | 40.65506 | -80.92495 | 23997 ft | 380 kts | 283° |
| 2026-05-05 01:32 | 40.66101 | -80.95976 | 23997 ft | 399 kts | 281° |
| 2026-05-05 01:32 | 40.66720 | -80.99619 | 23997 ft | 414 kts | 282° |
| 2026-05-05 01:33 | 40.67358 | -81.03351 | 23997 ft | 412 kts | 282° |
| 2026-05-05 01:33 | 40.67983 | -81.06969 | 23992 ft | 400 kts | 282° |
| 2026-05-05 01:33 | 40.68577 | -81.10528 | 23991 ft | 396 kts | 281° |
| 2026-05-05 01:33 | 40.69176 | -81.14053 | 23991 ft | 392 kts | 282° |
| 2026-05-05 01:34 | 40.69766 | -81.17549 | 23989 ft | 390 kts | 281° |
| 2026-05-05 01:34 | 40.70356 | -81.21033 | 23981 ft | 388 kts | 282° |
| 2026-05-05 01:34 | 40.70945 | -81.24456 | 23981 ft | 387 kts | 281° |
| 2026-05-05 01:34 | 40.71515 | -81.27911 | 23980 ft | 385 kts | 281° |
| 2026-05-05 01:35 | 40.72084 | -81.31366 | 23982 ft | 384 kts | 282° |
| 2026-05-05 01:35 | 40.72666 | -81.34807 | 23982 ft | 384 kts | 282° |
| 2026-05-05 01:35 | 40.73238 | -81.38237 | 23978 ft | 384 kts | 282° |
| 2026-05-05 01:35 | 40.73827 | -81.41698 | 23978 ft | 389 kts | 283° |
| 2026-05-05 01:36 | 40.74872 | -81.45002 | 23964 ft | 394 kts | 300° |
| 2026-05-05 01:36 | 40.76292 | -81.48114 | 23967 ft | 397 kts | 298° |
| 2026-05-05 01:36 | 40.77681 | -81.51280 | 23962 ft | 399 kts | 299° |
| 2026-05-05 01:36 | 40.79107 | -81.54381 | 23983 ft | 401 kts | 300° |
| 2026-05-05 01:37 | 40.80548 | -81.57531 | 23979 ft | 402 kts | 298° |
| 2026-05-05 01:37 | 40.81938 | -81.60734 | 23983 ft | 402 kts | 299° |
| 2026-05-05 01:37 | 40.83370 | -81.63919 | 23987 ft | 403 kts | 299° |
| 2026-05-05 01:37 | 40.84810 | -81.67110 | 23988 ft | 403 kts | 299° |
| 2026-05-05 01:38 | 40.86468 | -81.70089 | 23964 ft | 407 kts | 313° |
| 2026-05-05 01:38 | 40.88634 | -81.72362 | 23538 ft | 383 kts | 326° |
| 2026-05-05 01:38 | 40.90981 | -81.73720 | 23008 ft | 356 kts | 339° |
| 2026-05-05 01:38 | 40.93346 | -81.74285 | 22448 ft | 337 kts | 352° |
| 2026-05-05 01:39 | 40.95635 | -81.74257 | 21898 ft | 320 kts | 357° |
| 2026-05-05 01:39 | 40.97805 | -81.74171 | 21359 ft | 306 kts | 357° |
| 2026-05-05 01:39 | 40.99894 | -81.74072 | 20829 ft | 294 kts | 356° |
| 2026-05-05 01:39 | 41.01906 | -81.73992 | 20305 ft | 285 kts | 356° |
| 2026-05-05 01:40 | 41.03865 | -81.73912 | 19800 ft | 278 kts | 356° |
| 2026-05-05 01:40 | 41.05776 | -81.73835 | 19316 ft | 272 kts | 355° |
| 2026-05-05 01:40 | 41.07630 | -81.73759 | 18831 ft | 267 kts | 355° |
| 2026-05-05 01:40 | 41.09473 | -81.73678 | 18347 ft | 263 kts | 355° |
| 2026-05-05 01:41 | 41.11296 | -81.73606 | 17850 ft | 260 kts | 354° |
| 2026-05-05 01:41 | 41.13096 | -81.73531 | 17310 ft | 258 kts | 354° |
| 2026-05-05 01:41 | 41.14884 | -81.73460 | 16757 ft | 255 kts | 354° |
| 2026-05-05 01:41 | 41.16655 | -81.73380 | 16235 ft | 253 kts | 354° |
| 2026-05-05 01:42 | 41.18412 | -81.73313 | 15719 ft | 251 kts | 354° |
| 2026-05-05 01:42 | 41.20152 | -81.73238 | 15222 ft | 249 kts | 354° |
| 2026-05-05 01:42 | 41.21884 | -81.73169 | 14729 ft | 248 kts | 353° |
| 2026-05-05 01:42 | 41.23576 | -81.73141 | 14251 ft | 246 kts | 352° |
| 2026-05-05 01:43 | 41.25285 | -81.73085 | 13775 ft | 245 kts | 353° |
| 2026-05-05 01:43 | 41.26986 | -81.73011 | 13291 ft | 245 kts | 353° |
| 2026-05-05 01:43 | 41.28692 | -81.72913 | 12760 ft | 245 kts | 354° |
| 2026-05-05 01:43 | 41.30392 | -81.72781 | 12241 ft | 245 kts | 355° |
| 2026-05-05 01:44 | 41.32092 | -81.72621 | 11727 ft | 244 kts | 355° |
| 2026-05-05 01:44 | 41.33784 | -81.72430 | 11226 ft | 244 kts | 355° |
| 2026-05-05 01:44 | 41.35468 | -81.72207 | 10734 ft | 243 kts | 356° |
| 2026-05-05 01:44 | 41.37106 | -81.71515 | 10237 ft | 262 kts | 29° |
| 2026-05-05 01:45 | 41.38223 | -81.69555 | 9757 ft | 272 kts | 64° |
| 2026-05-05 01:45 | 41.38922 | -81.67207 | 9250 ft | 271 kts | 65° |
| 2026-05-05 01:45 | 41.39780 | -81.64986 | 8725 ft | 268 kts | 55° |
| 2026-05-05 01:45 | 41.40787 | -81.62904 | 8220 ft | 266 kts | 52° |
| 2026-05-05 01:46 | 41.41786 | -81.60821 | 7723 ft | 267 kts | 55° |
| 2026-05-05 01:46 | 41.42750 | -81.58715 | 7231 ft | 266 kts | 56° |
| 2026-05-05 01:46 | 41.43694 | -81.56621 | 6943 ft | 257 kts | 56° |
| 2026-05-05 01:46 | 41.44594 | -81.54652 | 6901 ft | 239 kts | 55° |
| 2026-05-05 01:47 | 41.45473 | -81.52903 | 6884 ft | 218 kts | 37° |
| 2026-05-05 01:47 | 41.46751 | -81.52219 | 6688 ft | 185 kts | 343° |
| 2026-05-05 01:47 | 41.47754 | -81.52902 | 6454 ft | 156 kts | 302° |
| 2026-05-05 01:47 | 41.48516 | -81.53969 | 6184 ft | 159 kts | 300° |
| 2026-05-05 01:48 | 41.49214 | -81.55199 | 5721 ft | 180 kts | 294° |
| 2026-05-05 01:48 | 41.49835 | -81.56680 | 5364 ft | 184 kts | 290° |
| 2026-05-05 01:48 | 41.50439 | -81.58145 | 5168 ft | 180 kts | 291° |
| 2026-05-05 01:48 | 41.51055 | -81.59604 | 4870 ft | 184 kts | 290° |
| 2026-05-05 01:49 | 41.51659 | -81.61060 | 4649 ft | 174 kts | 290° |
| 2026-05-05 01:49 | 41.52250 | -81.62444 | 4392 ft | 168 kts | 289° |
| 2026-05-05 01:49 | 41.52810 | -81.63786 | 4124 ft | 161 kts | 284° |
| 2026-05-05 01:49 | 41.53007 | -81.65176 | 3802 ft | 151 kts | 262° |
| 2026-05-05 01:50 | 41.52851 | -81.66528 | 3561 ft | 144 kts | 250° |
| 2026-05-05 01:50 | 41.52421 | -81.67716 | 3286 ft | 142 kts | 235° |
| 2026-05-05 01:50 | 41.51771 | -81.68702 | 3063 ft | 141 kts | 229° |
| 2026-05-05 01:50 | 41.51076 | -81.69665 | 3091 ft | 144 kts | 230° |
| 2026-05-05 01:51 | 41.50413 | -81.70665 | 3095 ft | 143 kts | 233° |
| 2026-05-05 01:51 | 41.49792 | -81.71704 | 3053 ft | 143 kts | 233° |
| 2026-05-05 01:51 | 41.49165 | -81.72714 | 3066 ft | 137 kts | 233° |
| 2026-05-05 01:51 | 41.48546 | -81.73696 | 3038 ft | 144 kts | 233° |
| 2026-05-05 01:52 | 41.47946 | -81.74725 | 2939 ft | 139 kts | 234° |
| 2026-05-05 01:52 | 41.47306 | -81.75743 | 2598 ft | 149 kts | 232° |
| 2026-05-05 01:52 | 41.46622 | -81.76794 | 2403 ft | 148 kts | 233° |
| 2026-05-05 01:52 | 41.45992 | -81.77861 | 2219 ft | 146 kts | 235° |
| 2026-05-05 01:53 | 41.45341 | -81.78859 | 2053 ft | 136 kts | 230° |
| 2026-05-05 01:53 | 41.44752 | -81.79775 | 1833 ft | 123 kts | 231° |
| 2026-05-05 01:53 | 41.44232 | -81.80626 | 1626 ft | 117 kts | 233° |
| 2026-05-05 01:53 | 41.43715 | -81.81463 | 1491 ft | 116 kts | 232° |
| 2026-05-05 01:54 | 41.43217 | -81.82259 | 1341 ft | 102 kts | 231° |
| 2026-05-05 01:54 | 41.42778 | -81.82973 | 1141 ft | 99 kts | 229° |
| 2026-05-05 01:54 | 41.42343 | -81.83652 | 1087 ft | 97 kts | 228° |
| 2026-05-05 01:54 | 41.41916 | -81.84321 | 1010 ft | 94 kts | 229° |
| 2026-05-05 01:55 | 41.41490 | -81.84988 | 802 ft | 93 kts | 226° |
| 2026-05-05 01:55 | 41.41108 | -81.85576 | 782 ft | 66 kts | 231° |
| 2026-05-05 01:55 | 41.40881 | -81.85902 | 780 ft | 22 kts | 182° |
| 2026-05-05 01:55 | 41.40825 | -81.85839 | 779 ft | 0 kts | 143° |
| 2026-05-05 01:56 | 41.40816 | -81.85834 | 770 ft | 10 kts | 169° |
| 2026-05-05 01:56 | 41.40715 | -81.85972 | 780 ft | 32 kts | 228° |
| 2026-05-05 01:56 | 41.40582 | -81.86175 | 776 ft | 24 kts | 211° |
| 2026-05-05 01:57 | 41.40442 | -81.86106 | 771 ft | 20 kts | 146° |
| 2026-05-05 01:57 | 41.40314 | -81.85971 | 773 ft | 19 kts | 139° |
| 2026-05-05 01:57 | 41.40300 | -81.85954 | 773 ft | 0 kts | 129° |
| 2026-05-05 01:57 | 41.40297 | -81.85942 | 774 ft | 14 kts | 91° |
| 2026-05-05 01:58 | 41.40421 | -81.85739 | 778 ft | 30 kts | 51° |
| 2026-05-05 01:58 | 41.40478 | -81.85646 | 779 ft | 0 kts | 50° |
| 2026-05-05 01:58 | 41.40546 | -81.85477 | 778 ft | 19 kts | 127° |
| 2026-05-05 01:58 | 41.40420 | -81.85469 | 781 ft | 24 kts | 164° |
| 2026-05-05 01:59 | 41.40285 | -81.85396 | 785 ft | 12 kts | 120° |
| 2026-05-05 01:59 | 41.40275 | -81.85358 | 785 ft | 0 kts | 100° |